Time;durP1;ratioP1;P1;durP2;ratioP2;P2;SDS_P1;SDS_P2;PMS_P1;PMS_P2;Temp;Humidity;BMP_temperature;BMP_pressure;BME280_temperature;BME280_humidity;BME280_pressure;Samples;Min_cycle;Max_cycle;Signal;HPM_P1;HPM_P2
2022/07/14 00:02:22;;;;;;;1.77;1.67;;;;;;;22.21;59.96;96988.34;5043461;28;20195;-51
2022/07/14 00:04:50;;;;;;;1.45;1.45;;;;;;;22.21;59.99;96982.97;5041900;28;20214;-52
2022/07/14 00:07:17;;;;;;;1.55;1.55;;;;;;;22.19;59.95;96976.94;5043459;28;20234;-52
2022/07/14 00:09:44;;;;;;;1.88;1.60;;;;;;;22.20;59.87;96975.91;5042797;28;20224;-53
2022/07/14 00:12:11;;;;;;;1.52;1.42;;;;;;;22.16;60.02;96978.19;5044478;28;20593;-53
2022/07/14 00:14:37;;;;;;;1.77;1.67;;;;;;;22.19;60.42;96987.72;5043455;28;20235;-51
2022/07/14 00:17:04;;;;;;;1.83;1.70;;;;;;;22.18;60.69;96983.34;5042966;28;20203;-52
2022/07/14 00:19:30;;;;;;;2.75;1.58;;;;;;;22.22;60.19;96982.75;5042283;28;20203;-54
2022/07/14 00:21:58;;;;;;;3.63;1.48;;;;;;;22.20;60.61;96984.81;5043263;28;20288;-52
2022/07/14 00:24:25;;;;;;;1.90;1.80;;;;;;;22.21;60.81;96991.03;5042523;28;20604;-52
2022/07/14 00:26:52;;;;;;;1.90;1.80;;;;;;;22.26;59.36;97007.41;5042885;28;20207;-54
2022/07/14 00:29:18;;;;;;;2.65;1.85;;;;;;;22.24;60.26;97014.88;5043558;28;20634;-54
2022/07/14 00:31:45;;;;;;;2.28;1.60;;;;;;;22.25;60.72;97016.50;5044678;28;20215;-52
2022/07/14 00:34:12;;;;;;;3.80;1.73;;;;;;;22.26;60.61;97020.88;5044658;28;20267;-53
2022/07/14 00:36:38;;;;;;;2.53;1.95;;;;;;;22.28;59.87;97018.81;5044737;28;20199;-54
2022/07/14 00:39:06;;;;;;;2.00;1.90;;;;;;;22.29;61.68;97015.06;5043643;28;20286;-54
2022/07/14 00:41:34;;;;;;;3.15;1.90;;;;;;;22.29;61.50;97010.50;5061853;28;20209;-59
2022/07/14 00:44:01;;;;;;;3.22;2.20;;;;;;;22.29;62.16;97010.50;5067672;28;20200;-59
2022/07/14 00:46:28;;;;;;;2.13;1.60;;;;;;;22.32;61.10;97003.88;5063552;28;20249;-57
2022/07/14 00:48:57;;;;;;;2.13;1.92;;;;;;;22.31;61.67;97013.84;5065022;28;20199;-60
2022/07/14 00:51:23;;;;;;;1.92;1.80;;;;;;;22.33;61.56;97005.53;5066580;28;20196;-55
2022/07/14 00:53:55;;;;;;;1.70;1.70;;;;;;;22.33;61.79;97003.66;5061024;28;20202;-56
2022/07/14 00:56:23;;;;;;;2.25;2.00;;;;;;;22.33;62.40;97013.63;5065965;28;20227;-57
2022/07/14 00:58:50;;;;;;;3.70;2.08;;;;;;;22.32;61.93;97006.56;5070166;28;20183;-58
2022/07/14 01:01:16;;;;;;;2.38;2.08;;;;;;;22.30;62.52;97011.34;5069520;28;20224;-57
2022/07/14 01:03:43;;;;;;;3.42;2.03;;;;;;;22.29;63.25;97005.13;5069947;28;20199;-55
2022/07/14 01:06:10;;;;;;;1.80;1.70;;;;;;;22.26;63.43;97002.84;5069038;28;20171;-56
2022/07/14 01:08:36;;;;;;;2.20;1.75;;;;;;;22.22;64.35;96998.06;5068741;28;20192;-57
2022/07/14 01:11:07;;;;;;;2.10;1.90;;;;;;;22.27;63.04;97004.50;5061945;28;20228;-58
2022/07/14 01:13:35;;;;;;;3.17;1.95;;;;;;;22.25;63.13;96992.25;5067451;28;20200;-59
2022/07/14 01:16:04;;;;;;;1.90;1.80;;;;;;;22.18;64.76;96991.44;5066738;28;20289;-58
2022/07/14 01:18:31;;;;;;;2.22;2.00;;;;;;;22.18;64.12;96986.03;5067396;28;20204;-57
2022/07/14 01:20:57;;;;;;;2.90;2.20;;;;;;;22.20;64.11;96981.28;5055968;28;20199;-58
2022/07/14 01:23:25;;;;;;;2.70;2.00;;;;;;;22.18;64.92;96986.03;5047984;28;20199;-60
2022/07/14 01:25:52;;;;;;;2.75;2.20;;;;;;;22.19;64.00;96982.31;5045388;28;20227;-60
2022/07/14 01:28:19;;;;;;;2.40;2.10;;;;;;;22.19;64.16;96979.63;5046009;28;20211;-59
2022/07/14 01:30:46;;;;;;;3.60;2.42;;;;;;;22.18;63.74;96972.56;5045765;28;20692;-60
2022/07/14 01:33:14;;;;;;;2.17;1.73;;;;;;;22.16;64.06;96967.41;5046998;28;20208;-58
2022/07/14 01:35:40;;;;;;;1.98;1.88;;;;;;;22.16;64.39;96955.81;5047769;28;20216;-59
2022/07/14 01:38:07;;;;;;;2.15;1.95;;;;;;;22.12;65.25;96943.78;5046540;28;20214;-59
2022/07/14 01:40:36;;;;;;;2.38;2.28;;;;;;;22.10;65.20;96935.09;5045478;28;20219;-58
2022/07/14 01:43:03;;;;;;;2.75;2.03;;;;;;;22.09;65.42;96920.78;5046637;28;20208;-59
2022/07/14 01:45:32;;;;;;;2.70;2.50;;;;;;;22.12;64.42;96900.69;5044544;28;20207;-60
2022/07/14 01:47:59;;;;;;;2.00;1.90;;;;;;;22.16;63.33;96881.22;5045736;28;20212;-57
2022/07/14 01:50:25;;;;;;;2.38;1.90;;;;;;;22.25;60.68;96873.72;5046712;28;20239;-58
2022/07/14 01:52:52;;;;;;;1.98;1.85;;;;;;;22.31;60.23;96886.38;5044824;28;20208;-60
2022/07/14 01:55:19;;;;;;;1.98;1.58;;;;;;;22.42;60.27;96914.53;5046735;28;20234;-58
2022/07/14 01:57:47;;;;;;;2.83;2.40;;;;;;;22.56;56.72;96918.84;5051527;28;20253;-58
2022/07/14 02:00:14;;;;;;;4.18;2.60;;;;;;;22.49;57.54;96918.03;5054926;28;20204;-57
2022/07/14 02:02:40;;;;;;;4.03;2.58;;;;;;;22.48;57.88;96922.59;5058155;28;20211;-58
2022/07/14 02:05:10;;;;;;;2.70;2.55;;;;;;;22.47;58.26;96926.31;5054364;28;20249;-58
2022/07/14 02:07:37;;;;;;;2.72;2.10;;;;;;;22.44;58.63;96926.75;5053141;28;20517;-55
2022/07/14 02:12:51;;;;;;;4.45;2.30;;;;;;;22.42;58.58;96928.84;5044887;28;20210;-58
2022/07/14 02:15:17;;;;;;;2.00;1.88;;;;;;;22.43;57.77;96935.88;5044897;28;20227;-60
2022/07/14 02:17:45;;;;;;;2.05;1.77;;;;;;;22.43;57.65;96930.47;5044548;28;20238;-58
2022/07/14 02:20:12;;;;;;;2.10;1.92;;;;;;;22.41;58.19;96927.19;5045307;28;20227;-57
2022/07/14 02:22:40;;;;;;;2.55;1.88;;;;;;;22.38;58.95;96932.16;5044115;28;20227;-59
2022/07/14 02:25:08;;;;;;;3.10;2.08;;;;;;;22.36;58.06;96929.66;5044133;28;20208;-59
2022/07/14 02:27:35;;;;;;;3.67;2.17;;;;;;;22.34;58.83;96939.84;5044003;28;20227;-58
2022/07/14 02:30:07;;;;;;;2.55;2.20;;;;;;;22.31;58.62;96924.09;5047480;28;20230;-58
2022/07/14 02:32:34;;;;;;;2.30;2.20;;;;;;;22.23;59.73;96925.13;5045014;28;20207;-57
2022/07/14 02:35:00;;;;;;;2.15;2.05;;;;;;;22.20;60.05;96919.34;5043754;28;20633;-58
2022/07/14 02:37:27;;;;;;;4.32;1.98;;;;;;;22.17;60.27;96925.16;5043688;28;20211;-58
2022/07/14 02:39:54;;;;;;;2.67;1.65;;;;;;;22.18;59.66;96916.84;5045513;28;20364;-59
2022/07/14 02:42:21;;;;;;;2.00;1.90;;;;;;;22.18;60.36;96910.63;5044774;28;20230;-57
2022/07/14 02:44:49;;;;;;;2.38;1.90;;;;;;;22.14;61.88;96920.97;5044840;28;20250;-58
2022/07/14 02:47:17;;;;;;;3.10;2.00;;;;;;;22.10;61.59;96924.31;5045893;28;20235;-57
2022/07/14 02:49:43;;;;;;;2.10;1.95;;;;;;;22.06;63.55;96913.13;5050698;28;20226;-59
2022/07/14 02:52:10;;;;;;;2.10;1.90;;;;;;;22.04;63.34;96914.34;5061196;28;20218;-59
2022/07/14 02:54:38;;;;;;;3.20;1.90;;;;;;;22.01;63.16;96915.59;5051243;28;20210;-54
2022/07/14 02:57:04;;;;;;;3.28;1.80;;;;;;;22.00;63.47;96923.91;5043610;28;20196;-54
2022/07/14 02:59:31;;;;;;;2.17;1.67;;;;;;;22.01;63.47;96933.63;5043574;28;20208;-54
2022/07/14 03:01:58;;;;;;;2.10;2.00;;;;;;;22.01;63.54;96936.31;5043060;28;20595;-53
2022/07/14 03:04:25;;;;;;;2.25;1.90;;;;;;;21.93;64.50;96950.00;5044798;28;20223;-55
2022/07/14 03:06:53;;;;;;;3.08;2.17;;;;;;;21.92;63.53;96949.19;5043208;28;20231;-54
2022/07/14 03:09:20;;;;;;;2.47;2.25;;;;;;;21.90;63.08;96944.97;5043103;28;20207;-53
2022/07/14 03:11:46;;;;;;;2.10;1.92;;;;;;;21.92;62.27;96959.13;5042850;28;20258;-53
2022/07/14 03:14:13;;;;;;;2.10;2.00;;;;;;;21.93;62.19;96961.59;5043667;28;20566;-53
2022/07/14 03:16:39;;;;;;;2.53;2.20;;;;;;;21.96;62.07;96958.50;5042846;28;20230;-53
2022/07/14 03:19:06;;;;;;;1.90;1.80;;;;;;;21.99;61.50;96959.94;5043565;28;20223;-53
2022/07/14 03:21:34;;;;;;;3.00;2.25;;;;;;;21.99;63.25;96943.78;5043027;28;20230;-53
2022/07/14 03:24:01;;;;;;;3.70;2.33;;;;;;;21.95;63.87;96942.53;5045400;28;20242;-53
2022/07/14 03:26:28;;;;;;;3.58;2.30;;;;;;;21.94;63.74;96947.09;5044762;28;20226;-54
2022/07/14 03:28:55;;;;;;;4.72;2.10;;;;;;;21.93;63.43;96947.31;5044146;28;20211;-53
2022/07/14 03:31:21;;;;;;;2.30;2.20;;;;;;;21.94;63.30;96949.78;5044300;28;20262;-53
2022/07/14 03:33:48;;;;;;;2.28;2.10;;;;;;;21.89;63.95;96941.50;5044949;28;20228;-53
2022/07/14 03:36:15;;;;;;;2.40;2.20;;;;;;;21.87;64.13;96934.63;5046013;28;20203;-53
2022/07/14 03:38:43;;;;;;;3.17;2.40;;;;;;;21.84;63.29;96934.03;5045375;28;20207;-54
2022/07/14 03:41:09;;;;;;;2.05;1.95;;;;;;;21.82;65.69;96933.38;5043006;28;20281;-53
2022/07/14 03:43:36;;;;;;;2.05;1.95;;;;;;;21.77;66.12;96924.28;5043076;28;20231;-53
2022/07/14 03:46:02;;;;;;;3.13;2.30;;;;;;;21.72;67.25;96918.66;5042847;28;20235;-55
2022/07/14 03:48:29;;;;;;;2.65;1.98;;;;;;;21.68;66.61;96914.75;5042913;28;20237;-53
2022/07/14 03:50:56;;;;;;;2.10;1.90;;;;;;;21.71;65.99;96920.56;5043166;28;20262;-53
2022/07/14 03:53:23;;;;;;;4.85;2.30;;;;;;;21.74;64.93;96947.06;5043406;28;20199;-53
2022/07/14 03:55:51;;;;;;;2.35;1.85;;;;;;;21.66;66.71;96944.56;5042840;28;20214;-53
2022/07/14 03:58:18;;;;;;;2.20;2.10;;;;;;;21.61;68.41;96930.06;5043658;28;20203;-53
2022/07/14 04:00:44;;;;;;;3.15;2.15;;;;;;;21.56;68.36;96917.22;5043793;28;20207;-53
2022/07/14 04:03:11;;;;;;;1.90;1.80;;;;;;;21.56;68.46;96935.22;5043562;28;20191;-55
2022/07/14 04:05:38;;;;;;;1.98;1.88;;;;;;;21.51;68.62;96946.59;5042500;28;20203;-54
2022/07/14 04:08:05;;;;;;;2.03;1.92;;;;;;;21.54;66.89;96958.84;5042504;28;20237;-53
2022/07/14 04:10:32;;;;;;;2.72;2.10;;;;;;;21.54;67.39;96967.72;5043793;28;20230;-53
2022/07/14 04:13:00;;;;;;;2.00;1.90;;;;;;;21.57;67.50;96988.88;5042842;28;20195;-53
2022/07/14 04:15:28;;;;;;;2.50;2.25;;;;;;;21.57;68.14;96983.47;5042855;28;20206;-53
2022/07/14 04:17:55;;;;;;;2.05;1.95;;;;;;;21.49;68.63;96969.38;5042293;28;20203;-53
2022/07/14 04:20:22;;;;;;;2.10;2.00;;;;;;;21.53;67.37;96954.47;5042933;28;20522;-53
2022/07/14 04:22:49;;;;;;;1.98;1.88;;;;;;;21.58;67.14;96958.19;5041753;28;20208;-54
2022/07/14 04:25:16;;;;;;;2.40;2.20;;;;;;;21.69;66.55;96968.38;5042665;28;20264;-53
2022/07/14 04:27:43;;;;;;;2.00;1.90;;;;;;;21.75;65.97;96964.84;5045874;28;20207;-54
2022/07/14 04:30:13;;;;;;;2.30;2.20;;;;;;;21.73;65.88;96969.63;5046632;28;20261;-53
2022/07/14 04:32:40;;;;;;;2.03;1.92;;;;;;;21.74;67.09;96971.28;5047097;28;20566;-53
2022/07/14 04:35:07;;;;;;;2.45;2.25;;;;;;;21.72;67.42;96962.56;5047674;28;20210;-56
2022/07/14 04:37:34;;;;;;;4.18;2.50;;;;;;;21.75;67.18;96955.97;5046278;28;20572;-54
2022/07/14 04:40:02;;;;;;;2.40;2.20;;;;;;;21.76;65.75;96939.59;5047415;28;20203;-54
2022/07/14 04:42:29;;;;;;;2.30;2.10;;;;;;;21.77;65.57;96938.56;5046691;28;20207;-54
2022/07/14 04:44:55;;;;;;;2.75;2.25;;;;;;;21.79;65.52;96928.41;5046126;28;20644;-53
2022/07/14 04:47:23;;;;;;;2.75;2.55;;;;;;;21.81;66.39;96931.75;5046608;28;20254;-54
2022/07/14 04:52:34;;;;;;;2.08;1.98;;;;;;;21.91;65.01;96917.88;5046283;28;20225;-53
2022/07/14 04:55:00;;;;;;;2.33;2.22;;;;;;;22.00;64.84;96899.69;5045796;28;20281;-55
2022/07/14 04:57:27;;;;;;;7.72;2.50;;;;;;;22.06;63.78;96890.75;5045355;28;20203;-55
2022/07/14 04:59:54;;;;;;;2.17;2.08;;;;;;;22.15;63.36;96889.47;5051396;28;20243;-54
2022/07/14 05:02:21;;;;;;;2.35;2.13;;;;;;;22.31;61.53;96889.91;5062948;28;20211;-54
2022/07/14 05:04:50;;;;;;;2.88;2.58;;;;;;;22.40;61.67;96903.97;5064376;28;20211;-55
2022/07/14 05:07:17;;;;;;;2.97;2.05;;;;;;;22.49;61.37;96913.50;5048491;28;20262;-55
2022/07/14 05:09:44;;;;;;;2.55;2.30;;;;;;;22.56;60.05;96929.63;5045643;28;20214;-55
2022/07/14 05:12:13;;;;;;;2.38;2.17;;;;;;;22.61;60.14;96927.97;5047330;28;20250;-54
2022/07/14 05:14:39;;;;;;;3.33;2.33;;;;;;;22.70;60.17;96926.72;5046872;28;20240;-53
2022/07/14 05:17:06;;;;;;;2.35;2.15;;;;;;;22.77;60.18;96926.72;5047736;28;20207;-54
2022/07/14 05:19:32;;;;;;;3.30;3.05;;;;;;;22.83;60.14;96925.84;5046513;28;20231;-56
2022/07/14 05:22:00;;;;;;;3.03;2.50;;;;;;;22.88;61.52;96933.31;5045656;28;20195;-53
2022/07/14 05:24:27;;;;;;;2.80;2.47;;;;;;;22.86;62.26;96941.59;5048827;28;20219;-54
2022/07/14 05:26:53;;;;;;;3.25;2.70;;;;;;;22.86;63.13;96948.84;5050589;28;20215;-54
2022/07/14 05:29:20;;;;;;;2.65;2.40;;;;;;;22.88;62.84;96952.19;5045192;28;20222;-54
2022/07/14 05:31:47;;;;;;;2.38;2.03;;;;;;;22.90;61.71;96953.63;5045708;28;20227;-53
2022/07/14 05:34:14;;;;;;;2.58;2.00;;;;;;;22.94;63.68;96943.25;5045536;28;20199;-54
2022/07/14 05:36:40;;;;;;;4.18;2.70;;;;;;;22.97;62.65;96953.59;5044641;28;20199;-54
2022/07/14 05:39:09;;;;;;;2.15;1.95;;;;;;;23.09;63.05;96960.00;5046148;28;20227;-55
2022/07/14 05:41:35;;;;;;;3.65;2.38;;;;;;;23.13;63.27;96969.31;5065048;28;20210;-54
2022/07/14 05:44:02;;;;;;;2.30;2.10;;;;;;;23.14;62.74;96973.66;5065486;28;20199;-54
2022/07/14 05:46:28;;;;;;;2.85;2.53;;;;;;;23.11;63.03;96966.81;5069429;28;20243;-53
2022/07/14 05:48:55;;;;;;;4.85;2.53;;;;;;;23.13;63.66;96969.31;5067295;28;20210;-56
2022/07/14 05:51:22;;;;;;;2.67;2.25;;;;;;;23.14;64.29;96977.19;5067027;28;20225;-53
2022/07/14 05:53:49;;;;;;;2.28;2.13;;;;;;;23.23;65.55;96964.28;5067542;28;20242;-54
2022/07/14 05:56:17;;;;;;;3.50;2.30;;;;;;;23.34;64.56;96950.13;5065608;28;20192;-54
2022/07/14 05:58:45;;;;;;;3.47;2.83;;;;;;;23.52;61.09;96942.19;5068775;28;20620;-53
2022/07/14 06:01:12;;;;;;;2.45;1.98;;;;;;;23.62;61.70;96937.13;5064331;28;20620;-55
2022/07/14 06:03:38;;;;;;;2.35;2.15;;;;;;;23.67;62.89;96937.28;5048303;28;20208;-53
2022/07/14 06:06:10;;;;;;;2.97;2.60;;;;;;;23.70;63.15;96938.75;5044690;28;20199;-54
2022/07/14 06:08:36;;;;;;;4.13;3.03;;;;;;;23.72;64.26;96942.88;5045218;28;20232;-53
2022/07/14 06:11:03;;;;;;;5.18;2.42;;;;;;;23.74;63.29;96929.97;5044865;28;20238;-53
2022/07/14 06:13:32;;;;;;;3.30;2.80;;;;;;;23.76;60.75;96927.88;5047720;28;20207;-53
2022/07/14 06:15:59;;;;;;;3.08;2.60;;;;;;;23.89;59.87;96929.66;5056337;28;20237;-53
2022/07/14 06:18:26;;;;;;;4.47;2.42;;;;;;;24.21;60.08;96934.00;5065773;28;20200;-54
2022/07/14 06:20:53;;;;;;;5.40;2.78;;;;;;;24.67;58.27;96927.28;5064770;28;20215;-54
2022/07/14 06:23:20;;;;;;;3.40;2.40;;;;;;;25.04;57.27;96926.28;5066338;28;20200;-54
2022/07/14 06:25:46;;;;;;;5.82;3.05;;;;;;;25.29;56.71;96922.63;5065567;28;20204;-55
2022/07/14 06:28:13;;;;;;;7.38;2.85;;;;;;;25.54;56.32;96928.78;5066884;28;20227;-54
2022/07/14 06:30:41;;;;;;;4.47;2.88;;;;;;;25.74;54.64;96927.44;5067564;28;20215;-53
2022/07/14 06:33:08;;;;;;;5.22;2.75;;;;;;;25.83;52.41;96924.38;5067108;28;20216;-52
2022/07/14 06:35:34;;;;;;;3.53;2.47;;;;;;;26.03;53.69;96928.44;5068153;28;20203;-53
2022/07/14 06:38:01;;;;;;;7.65;2.65;;;;;;;26.22;55.40;96934.59;5068154;28;20184;-53
2022/07/14 06:40:27;;;;;;;3.47;2.95;;;;;;;26.30;53.29;96926.13;5067746;28;20202;-54
2022/07/14 06:42:54;;;;;;;6.18;2.58;;;;;;;26.05;55.63;96934.44;5066565;28;20207;-52
2022/07/14 06:45:20;;;;;;;14.60;3.45;;;;;;;26.35;54.06;96934.41;5060130;28;20199;-52
2022/07/14 06:47:49;;;;;;;4.10;2.50;;;;;;;26.72;51.89;96927.66;5048134;28;20226;-52
2022/07/14 06:50:15;;;;;;;4.90;2.40;;;;;;;27.12;51.26;96925.00;5043841;28;20195;-53
2022/07/14 06:52:42;;;;;;;6.05;2.80;;;;;;;27.46;50.15;96919.72;5044250;28;20254;-54
2022/07/14 06:55:10;;;;;;;6.30;2.50;;;;;;;27.68;48.82;96912.53;5044078;28;20215;-53
2022/07/14 06:57:37;;;;;;;3.00;2.60;;;;;;;27.93;49.11;96909.44;5043318;28;20208;-53
2022/07/14 07:00:07;;;;;;;3.88;2.38;;;;;;;28.22;49.15;96911.03;5042784;28;20290;-53
2022/07/14 07:02:35;;;;;;;7.25;2.38;;;;;;;28.55;47.98;96902.84;5043428;28;20620;-54
2022/07/14 07:07:48;;;;;;;4.35;2.85;;;;;;;28.89;46.67;96894.63;5042885;28;20206;-53
2022/07/14 07:10:15;;;;;;;6.55;2.88;;;;;;;29.13;47.29;96887.84;5046070;28;20221;-54
2022/07/14 07:12:42;;;;;;;3.50;2.35;;;;;;;29.31;44.55;96884.81;5053876;28;20223;-54
2022/07/14 07:15:09;;;;;;;2.85;1.92;;;;;;;29.29;46.13;96881.53;5051161;28;20203;-56
2022/07/14 07:17:38;;;;;;;5.88;2.38;;;;;;;29.48;46.08;96880.09;5048125;28;20663;-53
2022/07/14 07:20:10;;;;;;;5.60;2.13;;;;;;;29.78;46.63;96885.03;5045255;28;20196;-53
2022/07/14 07:22:37;;;;;;;5.25;2.50;;;;;;;30.04;44.54;96886.13;5045459;28;20192;-53
2022/07/14 07:25:06;;;;;;;5.80;2.45;;;;;;;30.08;43.89;96890.78;5045838;28;20265;-53
2022/07/14 07:27:33;;;;;;;3.53;2.08;;;;;;;30.24;45.21;96888.16;5047108;28;20199;-54
2022/07/14 07:30:00;;;;;;;3.65;2.22;;;;;;;30.24;42.30;96883.53;5044993;28;20196;-53
2022/07/14 07:32:27;;;;;;;6.32;2.00;;;;;;;30.38;43.67;96895.66;5047338;28;20310;-52
2022/07/14 07:34:54;;;;;;;2.92;2.08;;;;;;;30.59;44.03;96894.72;5048363;28;20235;-53
2022/07/14 07:37:22;;;;;;;8.18;2.10;;;;;;;30.65;44.26;96895.56;5046912;28;20284;-54
2022/07/14 07:39:48;;;;;;;5.95;2.25;;;;;;;30.80;43.93;96898.41;5048431;28;20606;-53
2022/07/14 07:42:15;;;;;;;3.25;1.90;;;;;;;30.87;42.57;96898.16;5046542;28;20243;-54
2022/07/14 07:44:41;;;;;;;5.20;2.10;;;;;;;30.82;43.54;96889.94;5043040;28;20239;-54
2022/07/14 07:47:08;;;;;;;3.75;2.13;;;;;;;30.67;41.64;96887.13;5042319;28;20562;-53
2022/07/14 07:49:35;;;;;;;8.20;2.65;;;;;;;30.87;42.28;96881.75;5042631;28;20588;-54
2022/07/14 07:52:02;;;;;;;4.72;2.17;;;;;;;31.14;42.57;96863.34;5042964;28;20215;-54
2022/07/14 07:54:32;;;;;;;3.15;2.08;;;;;;;31.33;41.76;96858.19;5043403;28;20365;-54
2022/07/14 07:56:59;;;;;;;3.30;1.92;;;;;;;31.49;44.03;96860.72;5042017;28;20208;-54
2022/07/14 07:59:26;;;;;;;4.85;2.42;;;;;;;31.70;40.54;96864.34;5043120;28;20222;-54
2022/07/14 08:01:53;;;;;;;2.85;2.28;;;;;;;31.62;42.56;96866.78;5040911;28;20195;-55
2022/07/14 08:04:19;;;;;;;2.63;2.35;;;;;;;32.03;40.37;96872.00;5042649;28;20599;-54
2022/07/14 08:06:46;;;;;;;3.10;1.83;;;;;;;31.93;38.60;96876.66;5042590;28;20243;-55
2022/07/14 08:09:13;;;;;;;2.47;1.80;;;;;;;32.12;35.92;96866.03;5041814;28;20223;-54
2022/07/14 08:11:42;;;;;;;3.35;1.95;;;;;;;31.89;37.05;96861.88;5042924;28;20227;-54
2022/07/14 08:14:47;;;;;;;2.83;1.70;;;;;;;31.92;36.24;96869.56;5043369;28;20211;-54
2022/07/14 08:16:56;;;;;;;3.20;2.10;;;;;;;31.94;39.13;96859.97;5041617;28;20654;-54
2022/07/14 08:19:23;;;;;;;4.25;1.80;;;;;;;32.01;35.53;96852.31;5042472;28;20207;-54
2022/07/14 08:21:50;;;;;;;1.70;1.60;;;;;;;32.02;37.20;96845.75;5042027;28;20211;-54
2022/07/14 08:24:18;;;;;;;2.25;1.80;;;;;;;31.98;37.20;96854.78;5042500;28;20263;-54
2022/07/14 08:26:47;;;;;;;1.83;1.40;;;;;;;31.85;37.29;96844.38;5041704;28;21363;-55
2022/07/14 08:29:13;;;;;;;3.95;1.80;;;;;;;31.84;38.97;96842.72;5042967;28;20599;-53
2022/07/14 08:31:40;;;;;;;3.40;2.25;;;;;;;31.75;39.04;96844.34;5041973;28;20215;-54
2022/07/14 08:34:06;;;;;;;4.07;1.73;;;;;;;31.86;34.58;96846.84;5042238;28;20208;-55
2022/07/14 08:36:33;;;;;;;2.45;1.38;;;;;;;31.42;34.15;96846.50;5043393;28;20674;-54
2022/07/14 08:39:01;;;;;;;1.67;1.58;;;;;;;31.14;35.61;96846.97;5042387;28;20220;-54
2022/07/14 08:41:28;;;;;;;4.78;1.63;;;;;;;31.14;35.07;96846.97;5042029;28;20296;-54
2022/07/14 08:43:56;;;;;;;2.53;1.80;;;;;;;31.07;35.77;96843.66;5042327;28;20239;-54
2022/07/14 08:46:23;;;;;;;1.85;1.63;;;;;;;31.07;35.53;96843.66;5042164;28;20246;-53
2022/07/14 08:48:51;;;;;;;2.25;2.03;;;;;;;31.15;36.40;96840.38;5042488;28;20206;-54
2022/07/14 08:51:18;;;;;;;1.95;1.75;;;;;;;31.18;39.02;96845.31;5043048;28;20208;-54
2022/07/14 08:53:46;;;;;;;2.38;2.17;;;;;;;31.31;38.21;96849.47;5042861;28;20321;-53
2022/07/14 08:56:14;;;;;;;3.42;2.00;;;;;;;31.03;38.98;96843.38;5042562;28;20208;-54
2022/07/14 08:58:41;;;;;;;1.75;1.65;;;;;;;31.15;36.45;96845.03;5042243;28;20206;-53
2022/07/14 09:01:10;;;;;;;2.30;2.10;;;;;;;30.80;38.15;96849.25;5042994;28;20302;-55
2022/07/14 09:03:36;;;;;;;3.35;1.77;;;;;;;30.97;39.79;96847.16;5044598;28;20210;-54
2022/07/14 09:06:05;;;;;;;3.58;1.95;;;;;;;31.30;38.74;96842.34;5046127;28;20200;-54
2022/07/14 09:08:56;;;;;;;4.20;1.90;;;;;;;31.54;39.41;96847.06;5047714;28;20208;-55
2022/07/14 09:11:22;;;;;;;4.05;1.90;;;;;;;31.65;38.00;96841.63;5046648;28;20203;-54
2022/07/14 09:13:49;;;;;;;1.70;1.60;;;;;;;31.74;37.72;96837.25;5048583;28;20262;-53
2022/07/14 09:16:20;;;;;;;2.08;1.90;;;;;;;31.65;38.22;96839.69;5054536;28;20200;-54
2022/07/14 09:19:02;;;;;;;4.72;3.00;;;;;;;31.65;37.80;96842.44;5066581;28;20203;-55
2022/07/14 09:21:29;;;;;;;2.83;2.00;;;;;;;31.75;35.90;96838.88;5070432;28;20191;-53
2022/07/14 09:23:57;;;;;;;2.33;2.20;;;;;;;31.87;37.16;96831.25;5064283;28;20184;-55
2022/07/14 09:26:24;;;;;;;2.78;2.50;;;;;;;31.77;37.79;96839.44;5064197;28;20254;-55
2022/07/14 09:28:52;;;;;;;2.25;2.15;;;;;;;31.77;37.70;96844.91;5062204;28;20207;-54
2022/07/14 09:31:25;;;;;;;2.60;2.25;;;;;;;31.75;37.94;96841.63;5061036;28;20213;-52
2022/07/14 09:33:53;;;;;;;2.22;2.08;;;;;;;31.74;38.13;96834.53;5069087;28;20247;-52
2022/07/14 09:36:22;;;;;;;4.53;2.03;;;;;;;31.69;38.26;96832.59;5070364;28;20252;-54
2022/07/14 09:38:49;;;;;;;3.97;2.00;;;;;;;31.64;38.08;96834.53;5066740;28;20210;-54
2022/07/14 09:41:16;;;;;;;2.25;2.03;;;;;;;31.60;36.75;96825.22;5052362;28;20203;-54
2022/07/14 09:44:06;;;;;;;3.30;2.08;;;;;;;31.48;37.69;96826.25;5044531;28;20188;-54
2022/07/14 09:46:47;;;;;;;2.20;1.92;;;;;;;31.78;39.91;96832.91;5044795;28;20258;-53
2022/07/14 09:49:16;;;;;;;1.70;1.70;;;;;;;31.77;40.43;96828.50;5044736;28;20198;-54
2022/07/14 09:51:57;;;;;;;3.22;2.13;;;;;;;31.71;38.15;96824.94;5044450;28;20207;-54
2022/07/14 09:54:41;;;;;;;3.42;2.08;;;;;;;31.86;38.08;96824.13;5044850;28;20653;-55
2022/07/14 09:57:08;;;;;;;2.70;2.35;;;;;;;31.81;37.83;96824.97;5045642;28;20514;-53
2022/07/14 09:59:43;;;;;;;4.03;2.10;;;;;;;31.60;36.82;96825.22;5044108;28;20220;-54
2022/07/14 10:02:16;;;;;;;2.97;2.28;;;;;;;31.82;37.28;96810.16;5044247;28;20200;-53
2022/07/14 10:04:44;;;;;;;2.47;2.28;;;;;;;31.99;37.55;96813.44;5044854;28;20207;-54
2022/07/14 10:07:11;;;;;;;2.85;1.92;;;;;;;32.29;33.91;96814.53;5044401;28;20211;-54
2022/07/14 10:09:39;;;;;;;2.97;1.63;;;;;;;32.47;34.89;96814.78;5044043;28;20209;-54
2022/07/14 10:12:06;;;;;;;2.17;1.63;;;;;;;32.66;34.01;96811.47;5044385;28;20636;-53
2022/07/14 10:14:33;;;;;;;1.70;1.60;;;;;;;32.86;34.92;96805.91;5044089;28;20270;-55
2022/07/14 10:17:00;;;;;;;2.97;1.52;;;;;;;32.91;31.77;96803.94;5044422;28;20199;-55
2022/07/14 10:19:28;;;;;;;1.58;1.48;;;;;;;32.82;32.82;96802.09;5044142;28;20219;-54
2022/07/14 10:21:55;;;;;;;1.35;1.25;;;;;;;32.85;30.75;96796.03;5043766;28;20210;-55
2022/07/14 10:24:23;;;;;;;2.50;1.67;;;;;;;32.91;nan;96794.94;5043523;28;20212;-53
2022/07/14 10:26:50;;;;;;;2.00;1.10;;;;;;;32.84;28.92;96788.94;5043915;28;20234;-55
2022/07/14 10:29:17;;;;;;;2.03;1.45;;;;;;;33.10;30.83;96784.97;5044002;28;20290;-54
2022/07/14 10:32:05;;;;;;;2.05;1.77;;;;;;;33.48;31.52;96778.69;5043929;28;20243;-54
2022/07/14 10:34:38;;;;;;;1.67;1.30;;;;;;;33.56;28.61;96773.72;5044306;28;20199;-54
2022/07/14 10:37:10;;;;;;;2.03;1.20;;;;;;;33.89;28.62;96782.00;5043871;28;20196;-55
2022/07/14 10:39:42;;;;;;;3.75;1.25;;;;;;;33.96;27.83;96781.66;5044128;28;20207;-55
2022/07/14 10:42:14;;;;;;;1.88;1.15;;;;;;;33.84;25.62;96778.44;5043938;28;20188;-55
2022/07/14 10:44:45;;;;;;;1.83;1.02;;;;;;;33.96;28.19;96776.97;5044231;28;20219;-55
2022/07/14 10:47:13;;;;;;;1.20;1.10;;;;;;;34.01;26.90;96776.91;5043073;28;20233;-55
2022/07/14 10:50:03;;;;;;;1.25;1.13;;;;;;;33.87;27.92;96773.22;5043756;28;20581;-55
2022/07/14 10:52:31;;;;;;;1.48;1.38;;;;;;;33.77;26.76;96773.31;5044076;28;20222;-53
2022/07/14 10:55:13;;;;;;;2.30;1.40;;;;;;;33.92;28.08;96769.59;5043324;28;20647;-54
2022/07/14 10:58:20;;;;;;;1.30;1.30;;;;;;;34.10;27.73;96770.81;5043139;28;20202;-54
2022/07/14 11:00:59;;;;;;;1.30;1.15;;;;;;;34.20;27.77;96768.00;5042916;28;20291;-56
2022/07/14 11:03:28;;;;;;;3.10;1.20;;;;;;;34.36;29.50;96770.31;5043550;28;20207;-54
2022/07/14 11:06:27;;;;;;;2.60;1.63;;;;;;;34.28;26.81;96768.19;5044026;28;20211;-53
2022/07/14 11:09:42;;;;;;;2.20;1.63;;;;;;;34.37;26.94;96769.16;5010782;28;20209;-54
2022/07/14 11:12:10;;;;;;;2.38;1.30;;;;;;;34.41;26.64;96744.69;5010500;28;20235;-54
2022/07/14 11:14:40;;;;;;;2.28;1.13;;;;;;;34.63;27.45;96752.44;5035740;28;20264;-54
2022/07/14 11:17:09;;;;;;;1.38;1.27;;;;;;;34.81;27.56;96746.16;5043563;28;20192;-54
2022/07/14 11:19:37;;;;;;;1.48;1.38;;;;;;;34.59;26.48;96751.34;5043470;28;20208;-53
2022/07/14 11:22:18;;;;;;;2.22;1.35;;;;;;;34.65;27.80;96742.78;5043876;28;20207;-55
2022/07/14 11:24:50;;;;;;;1.30;1.30;;;;;;;34.60;27.31;96744.75;5042985;28;20278;-54
2022/07/14 11:27:32;;;;;;;2.83;1.83;;;;;;;34.35;26.60;96751.34;5054705;28;20178;-54
2022/07/14 11:30:16;;;;;;;1.60;1.50;;;;;;;34.44;27.88;96741.34;5060081;28;20268;-54
2022/07/14 11:32:44;;;;;;;1.23;1.23;;;;;;;34.59;27.48;96740.34;5046885;28;20200;-54
2022/07/14 11:38:00;;;;;;;2.85;2.65;;;;;;;34.84;25.43;96738.13;5043482;28;20219;-56
2022/07/14 11:40:49;;;;;;;1.83;1.70;;;;;;;34.91;27.46;96729.53;5042308;28;20199;-56
2022/07/14 11:43:38;;;;;;;1.85;1.75;;;;;;;35.04;25.31;96725.25;5043099;28;20215;-55
2022/07/14 11:46:07;;;;;;;2.72;1.20;;;;;;;34.89;28.16;96724.34;5043075;28;20234;-53
2022/07/14 11:48:37;;;;;;;1.60;1.50;;;;;;;34.76;28.01;96714.06;5042758;28;20212;-54
2022/07/14 11:51:07;;;;;;;3.15;2.90;;;;;;;34.48;27.92;96715.75;5043324;28;20200;-55
2022/07/14 11:53:34;;;;;;;3.45;1.80;;;;;;;34.70;27.85;96717.19;5042278;28;20258;-54